sensor_id;sensor_type;location;lat;lon;timestamp;pressure;altitude;pressure_sealevel;temperature;humidity
30554;BME280;17335;50.720;7.452;2023-08-30T00:00:54;98723.19;;;13.87;100.00
30554;BME280;17335;50.720;7.452;2023-08-30T00:03:20;98731.75;;;13.91;100.00
30554;BME280;17335;50.720;7.452;2023-08-30T00:05:47;98733.22;;;13.94;100.00
30554;BME280;17335;50.720;7.452;2023-08-30T00:08:13;98731.56;;;13.93;100.00
30554;BME280;17335;50.720;7.452;2023-08-30T00:10:45;98730.53;;;13.94;100.00
30554;BME280;17335;50.720;7.452;2023-08-30T00:13:12;98723.47;;;13.93;100.00
30554;BME280;17335;50.720;7.452;2023-08-30T00:15:39;98718.25;;;13.91;100.00
30554;BME280;17335;50.720;7.452;2023-08-30T00:18:05;98711.72;;;13.85;100.00
30554;BME280;17335;50.720;7.452;2023-08-30T00:20:33;98715.81;;;13.81;100.00
30554;BME280;17335;50.720;7.452;2023-08-30T00:23:00;98714.19;;;13.72;100.00
30554;BME280;17335;50.720;7.452;2023-08-30T00:25:27;98719.59;;;13.72;100.00
30554;BME280;17335;50.720;7.452;2023-08-30T00:27:53;98727.88;;;13.71;100.00
30554;BME280;17335;50.720;7.452;2023-08-30T00:30:20;98718.91;;;13.70;100.00
30554;BME280;17335;50.720;7.452;2023-08-30T00:32:46;98719.28;;;13.67;100.00
30554;BME280;17335;50.720;7.452;2023-08-30T00:35:13;98716.94;;;13.64;100.00
30554;BME280;17335;50.720;7.452;2023-08-30T00:37:40;98710.16;;;13.68;100.00
30554;BME280;17335;50.720;7.452;2023-08-30T00:40:07;98709.75;;;13.56;100.00
30554;BME280;17335;50.720;7.452;2023-08-30T00:42:33;98709.28;;;13.53;100.00
30554;BME280;17335;50.720;7.452;2023-08-30T00:45:00;98707.59;;;13.52;100.00
30554;BME280;17335;50.720;7.452;2023-08-30T00:47:27;98706.94;;;13.49;100.00
30554;BME280;17335;50.720;7.452;2023-08-30T00:49:55;98706.66;;;13.44;100.00
30554;BME280;17335;50.720;7.452;2023-08-30T00:52:21;98698.06;;;13.41;100.00
30554;BME280;17335;50.720;7.452;2023-08-30T00:54:48;98699.25;;;13.38;100.00
30554;BME280;17335;50.720;7.452;2023-08-30T00:57:15;98700.31;;;13.29;100.00
30554;BME280;17335;50.720;7.452;2023-08-30T00:59:42;98694.09;;;13.20;100.00
30554;BME280;17335;50.720;7.452;2023-08-30T01:02:09;98694.50;;;13.17;100.00
30554;BME280;17335;50.720;7.452;2023-08-30T01:04:35;98692.78;;;13.16;100.00
30554;BME280;17335;50.720;7.452;2023-08-30T01:07:02;98686.94;;;13.12;100.00
30554;BME280;17335;50.720;7.452;2023-08-30T01:09:29;98682.75;;;13.10;100.00
30554;BME280;17335;50.720;7.452;2023-08-30T01:12:20;98682.44;;;13.05;100.00
30554;BME280;17335;50.720;7.452;2023-08-30T01:15:10;98680.09;;;13.02;100.00
30554;BME280;17335;50.720;7.452;2023-08-30T01:17:39;98681.09;;;13.01;100.00
30554;BME280;17335;50.720;7.452;2023-08-30T01:20:08;98675.75;;;12.92;100.00
30554;BME280;17335;50.720;7.452;2023-08-30T01:23:00;98665.69;;;12.86;100.00
30554;BME280;17335;50.720;7.452;2023-08-30T01:25:43;98661.81;;;12.81;100.00
30554;BME280;17335;50.720;7.452;2023-08-30T01:28:14;98660.50;;;12.76;100.00
30554;BME280;17335;50.720;7.452;2023-08-30T01:30:42;98663.06;;;12.70;100.00
30554;BME280;17335;50.720;7.452;2023-08-30T01:33:13;98660.94;;;12.57;100.00
30554;BME280;17335;50.720;7.452;2023-08-30T01:35:41;98666.19;;;12.50;100.00
30554;BME280;17335;50.720;7.452;2023-08-30T01:38:09;98662.81;;;12.48;100.00
30554;BME280;17335;50.720;7.452;2023-08-30T01:40:40;98659.97;;;12.50;100.00
30554;BME280;17335;50.720;7.452;2023-08-30T01:43:08;98657.75;;;12.53;100.00
30554;BME280;17335;50.720;7.452;2023-08-30T01:45:36;98659.25;;;12.56;100.00
30554;BME280;17335;50.720;7.452;2023-08-30T01:48:03;98660.97;;;12.49;100.00
30554;BME280;17335;50.720;7.452;2023-08-30T01:50:33;98658.63;;;12.46;100.00
30554;BME280;17335;50.720;7.452;2023-08-30T01:53:02;98658.63;;;12.46;100.00
30554;BME280;17335;50.720;7.452;2023-08-30T01:55:30;98657.28;;;12.50;100.00
30554;BME280;17335;50.720;7.452;2023-08-30T01:57:58;98652.75;;;12.42;100.00
30554;BME280;17335;50.720;7.452;2023-08-30T02:00:25;98657.97;;;12.44;100.00
30554;BME280;17335;50.720;7.452;2023-08-30T02:02:52;98651.56;;;12.45;100.00
30554;BME280;17335;50.720;7.452;2023-08-30T02:05:18;98648.34;;;12.49;100.00
30554;BME280;17335;50.720;7.452;2023-08-30T02:07:57;98655.91;;;12.54;100.00
30554;BME280;17335;50.720;7.452;2023-08-30T02:11:04;98656.56;;;12.56;100.00
30554;BME280;17335;50.720;7.452;2023-08-30T02:13:33;98645.63;;;12.57;100.00
30554;BME280;17335;50.720;7.452;2023-08-30T02:16:01;98659.91;;;12.58;100.00
30554;BME280;17335;50.720;7.452;2023-08-30T02:18:29;98654.03;;;12.54;100.00
30554;BME280;17335;50.720;7.452;2023-08-30T02:20:58;98650.50;;;12.54;100.00
30554;BME280;17335;50.720;7.452;2023-08-30T02:23:24;98652.22;;;12.55;100.00
30554;BME280;17335;50.720;7.452;2023-08-30T02:25:53;98650.19;;;12.57;100.00
30554;BME280;17335;50.720;7.452;2023-08-30T02:28:20;98644.47;;;12.52;100.00
30554;BME280;17335;50.720;7.452;2023-08-30T02:30:46;98642.94;;;12.49;100.00
30554;BME280;17335;50.720;7.452;2023-08-30T02:33:13;98642.47;;;12.46;100.00
30554;BME280;17335;50.720;7.452;2023-08-30T02:35:40;98648.56;;;12.40;100.00
30554;BME280;17335;50.720;7.452;2023-08-30T02:38:06;98651.28;;;12.31;100.00
30554;BME280;17335;50.720;7.452;2023-08-30T02:40:34;98650.13;;;12.26;100.00
30554;BME280;17335;50.720;7.452;2023-08-30T02:43:01;98648.09;;;12.19;100.00
30554;BME280;17335;50.720;7.452;2023-08-30T02:45:27;98646.59;;;12.17;100.00
30554;BME280;17335;50.720;7.452;2023-08-30T02:47:58;98644.22;;;12.22;100.00
30554;BME280;17335;50.720;7.452;2023-08-30T02:50:24;98641.72;;;12.21;100.00
30554;BME280;17335;50.720;7.452;2023-08-30T02:52:51;98637.84;;;12.23;100.00
30554;BME280;17335;50.720;7.452;2023-08-30T02:55:18;98638.66;;;12.24;100.00
30554;BME280;17335;50.720;7.452;2023-08-30T02:57:45;98632.59;;;12.30;100.00
30554;BME280;17335;50.720;7.452;2023-08-30T03:00:13;98629.75;;;12.31;100.00
30554;BME280;17335;50.720;7.452;2023-08-30T03:02:40;98626.03;;;12.32;100.00
30554;BME280;17335;50.720;7.452;2023-08-30T03:05:07;98626.38;;;12.29;100.00
30554;BME280;17335;50.720;7.452;2023-08-30T03:07:33;98619.66;;;12.25;100.00
30554;BME280;17335;50.720;7.452;2023-08-30T03:10:00;98617.63;;;12.27;100.00
30554;BME280;17335;50.720;7.452;2023-08-30T03:12:26;98616.78;;;12.27;100.00
30554;BME280;17335;50.720;7.452;2023-08-30T03:14:54;98616.63;;;12.28;100.00
30554;BME280;17335;50.720;7.452;2023-08-30T03:17:20;98615.94;;;12.34;100.00
30554;BME280;17335;50.720;7.452;2023-08-30T03:19:47;98619.94;;;12.38;100.00
30554;BME280;17335;50.720;7.452;2023-08-30T03:22:14;98609.50;;;12.44;100.00
30554;BME280;17335;50.720;7.452;2023-08-30T03:24:40;98620.44;;;12.42;100.00
30554;BME280;17335;50.720;7.452;2023-08-30T03:27:07;98624.28;;;12.48;100.00
30554;BME280;17335;50.720;7.452;2023-08-30T03:29:34;98612.34;;;12.50;100.00
30554;BME280;17335;50.720;7.452;2023-08-30T03:32:00;98616.03;;;12.49;100.00
30554;BME280;17335;50.720;7.452;2023-08-30T03:34:27;98614.53;;;12.47;100.00
30554;BME280;17335;50.720;7.452;2023-08-30T03:36:53;98611.00;;;12.46;100.00
30554;BME280;17335;50.720;7.452;2023-08-30T03:39:23;98603.94;;;12.45;100.00
30554;BME280;17335;50.720;7.452;2023-08-30T03:41:50;98610.34;;;12.44;100.00
30554;BME280;17335;50.720;7.452;2023-08-30T03:44:17;98605.97;;;12.43;100.00
30554;BME280;17335;50.720;7.452;2023-08-30T03:46:43;98608.69;;;12.43;100.00
30554;BME280;17335;50.720;7.452;2023-08-30T03:49:10;98608.84;;;12.42;100.00
30554;BME280;17335;50.720;7.452;2023-08-30T03:51:36;98614.22;;;12.42;100.00
30554;BME280;17335;50.720;7.452;2023-08-30T03:54:03;98617.09;;;12.40;100.00
30554;BME280;17335;50.720;7.452;2023-08-30T03:56:30;98611.88;;;12.38;100.00
30554;BME280;17335;50.720;7.452;2023-08-30T03:58:56;98612.41;;;12.34;100.00
30554;BME280;17335;50.720;7.452;2023-08-30T04:01:23;98609.88;;;12.32;100.00
30554;BME280;17335;50.720;7.452;2023-08-30T04:03:49;98617.44;;;12.37;100.00
30554;BME280;17335;50.720;7.452;2023-08-30T04:06:16;98617.63;;;12.27;100.00
30554;BME280;17335;50.720;7.452;2023-08-30T04:08:42;98624.88;;;12.27;100.00
30554;BME280;17335;50.720;7.452;2023-08-30T04:11:09;98623.50;;;12.31;100.00
30554;BME280;17335;50.720;7.452;2023-08-30T04:13:35;98615.56;;;12.37;100.00
30554;BME280;17335;50.720;7.452;2023-08-30T04:16:02;98619.31;;;12.28;100.00
30554;BME280;17335;50.720;7.452;2023-08-30T04:18:30;98618.09;;;12.39;100.00
30554;BME280;17335;50.720;7.452;2023-08-30T04:20:58;98620.94;;;12.37;100.00
30554;BME280;17335;50.720;7.452;2023-08-30T04:23:24;98624.34;;;12.40;100.00
30554;BME280;17335;50.720;7.452;2023-08-30T04:25:52;98630.56;;;12.40;100.00
30554;BME280;17335;50.720;7.452;2023-08-30T04:28:18;98627.03;;;12.40;100.00
30554;BME280;17335;50.720;7.452;2023-08-30T04:30:45;98632.91;;;12.43;100.00
30554;BME280;17335;50.720;7.452;2023-08-30T04:33:12;98631.03;;;12.44;100.00
30554;BME280;17335;50.720;7.452;2023-08-30T04:35:38;98624.81;;;12.43;100.00
30554;BME280;17335;50.720;7.452;2023-08-30T04:38:05;98631.22;;;12.42;100.00
30554;BME280;17335;50.720;7.452;2023-08-30T04:40:32;98622.66;;;12.38;100.00
30554;BME280;17335;50.720;7.452;2023-08-30T04:42:59;98626.03;;;12.32;100.00
30554;BME280;17335;50.720;7.452;2023-08-30T04:45:25;98619.31;;;12.28;100.00
30554;BME280;17335;50.720;7.452;2023-08-30T04:47:52;98622.03;;;12.20;100.00
30554;BME280;17335;50.720;7.452;2023-08-30T04:50:19;98617.69;;;12.11;100.00
30554;BME280;17335;50.720;7.452;2023-08-30T04:52:46;98613.34;;;12.01;100.00
30554;BME280;17335;50.720;7.452;2023-08-30T04:55:12;98616.22;;;12.00;100.00
30554;BME280;17335;50.720;7.452;2023-08-30T04:57:39;98612.50;;;12.01;100.00
30554;BME280;17335;50.720;7.452;2023-08-30T05:00:06;98617.88;;;11.93;100.00
30554;BME280;17335;50.720;7.452;2023-08-30T05:02:33;98610.31;;;11.88;100.00
30554;BME280;17335;50.720;7.452;2023-08-30T05:05:00;98612.31;;;11.86;100.00
30554;BME280;17335;50.720;7.452;2023-08-30T05:07:26;98607.97;;;11.85;100.00
30554;BME280;17335;50.720;7.452;2023-08-30T05:09:53;98602.59;;;11.85;100.00
30554;BME280;17335;50.720;7.452;2023-08-30T05:12:19;98607.63;;;11.88;100.00
30554;BME280;17335;50.720;7.452;2023-08-30T05:14:46;98594.34;;;11.87;100.00
30554;BME280;17335;50.720;7.452;2023-08-30T05:17:13;98606.94;;;11.86;100.00
30554;BME280;17335;50.720;7.452;2023-08-30T05:19:39;98601.56;;;11.86;100.00
30554;BME280;17335;50.720;7.452;2023-08-30T05:22:06;98589.81;;;11.87;100.00
30554;BME280;17335;50.720;7.452;2023-08-30T05:24:32;98579.88;;;11.88;100.00
30554;BME280;17335;50.720;7.452;2023-08-30T05:27:00;98587.28;;;11.86;100.00
30554;BME280;17335;50.720;7.452;2023-08-30T05:29:26;98578.72;;;11.90;100.00
30554;BME280;17335;50.720;7.452;2023-08-30T05:31:53;98582.09;;;11.92;100.00
30554;BME280;17335;50.720;7.452;2023-08-30T05:34:19;98577.53;;;11.93;100.00
30554;BME280;17335;50.720;7.452;2023-08-30T05:36:47;98580.06;;;11.94;100.00
30554;BME280;17335;50.720;7.452;2023-08-30T05:39:13;98574.03;;;11.92;100.00
30554;BME280;17335;50.720;7.452;2023-08-30T05:41:40;98570.66;;;11.98;100.00
30554;BME280;17335;50.720;7.452;2023-08-30T05:44:07;98559.22;;;11.96;100.00
30554;BME280;17335;50.720;7.452;2023-08-30T05:46:34;98561.06;;;12.04;100.00
30554;BME280;17335;50.720;7.452;2023-08-30T05:49:00;98562.53;;;12.07;100.00
30554;BME280;17335;50.720;7.452;2023-08-30T05:51:29;98561.38;;;12.09;100.00
30554;BME280;17335;50.720;7.452;2023-08-30T05:53:55;98550.41;;;12.19;100.00
30554;BME280;17335;50.720;7.452;2023-08-30T05:56:22;98547.19;;;12.24;100.00
30554;BME280;17335;50.720;7.452;2023-08-30T05:58:50;98549.31;;;12.36;100.00
30554;BME280;17335;50.720;7.452;2023-08-30T06:01:18;98552.16;;;12.43;100.00
30554;BME280;17335;50.720;7.452;2023-08-30T06:03:45;98550.41;;;12.50;100.00
30554;BME280;17335;50.720;7.452;2023-08-30T06:06:13;98552.91;;;12.60;100.00
30554;BME280;17335;50.720;7.452;2023-08-30T06:08:40;98545.44;;;12.70;100.00
30554;BME280;17335;50.720;7.452;2023-08-30T06:11:07;98552.56;;;12.86;100.00
30554;BME280;17335;50.720;7.452;2023-08-30T06:13:34;98554.47;;;13.01;100.00
30554;BME280;17335;50.720;7.452;2023-08-30T06:16:00;98555.59;;;13.06;100.00
30554;BME280;17335;50.720;7.452;2023-08-30T06:18:30;98552.19;;;13.12;100.00
30554;BME280;17335;50.720;7.452;2023-08-30T06:20:57;98547.75;;;13.20;100.00
30554;BME280;17335;50.720;7.452;2023-08-30T06:23:24;98544.16;;;13.27;100.00
30554;BME280;17335;50.720;7.452;2023-08-30T06:25:59;98543.09;;;13.37;100.00
30554;BME280;17335;50.720;7.452;2023-08-30T06:28:26;98537.34;;;13.40;100.00
30554;BME280;17335;50.720;7.452;2023-08-30T06:30:53;98535.75;;;13.45;100.00
30554;BME280;17335;50.720;7.452;2023-08-30T06:33:19;98535.88;;;13.52;100.00
30554;BME280;17335;50.720;7.452;2023-08-30T06:35:50;98533.34;;;13.50;100.00
30554;BME280;17335;50.720;7.452;2023-08-30T06:38:17;98536.34;;;13.56;100.00
30554;BME280;17335;50.720;7.452;2023-08-30T06:40:45;98524.25;;;13.66;100.00
30554;BME280;17335;50.720;7.452;2023-08-30T06:43:12;98521.47;;;13.75;100.00
30554;BME280;17335;50.720;7.452;2023-08-30T06:45:39;98521.75;;;13.80;100.00
30554;BME280;17335;50.720;7.452;2023-08-30T06:48:06;98520.09;;;13.79;100.00
30554;BME280;17335;50.720;7.452;2023-08-30T06:50:35;98521.03;;;13.86;100.00
30554;BME280;17335;50.720;7.452;2023-08-30T06:53:02;98515.81;;;13.84;100.00
30554;BME280;17335;50.720;7.452;2023-08-30T06:55:29;98510.22;;;13.86;100.00
30554;BME280;17335;50.720;7.452;2023-08-30T06:57:56;98521.31;;;13.91;100.00
30554;BME280;17335;50.720;7.452;2023-08-30T07:00:23;98519.06;;;13.95;100.00
30554;BME280;17335;50.720;7.452;2023-08-30T07:02:49;98511.25;;;14.00;100.00
30554;BME280;17335;50.720;7.452;2023-08-30T07:05:16;98509.84;;;14.04;100.00
30554;BME280;17335;50.720;7.452;2023-08-30T07:07:42;98511.78;;;14.10;100.00
30554;BME280;17335;50.720;7.452;2023-08-30T07:10:09;98501.00;;;14.10;100.00
30554;BME280;17335;50.720;7.452;2023-08-30T07:12:35;98491.41;;;14.07;100.00
30554;BME280;17335;50.720;7.452;2023-08-30T07:15:02;98496.25;;;14.12;100.00
30554;BME280;17335;50.720;7.452;2023-08-30T07:17:30;98493.38;;;14.14;100.00
30554;BME280;17335;50.720;7.452;2023-08-30T07:20:16;98489.69;;;14.21;100.00
30554;BME280;17335;50.720;7.452;2023-08-30T07:22:42;98492.41;;;14.21;100.00
30554;BME280;17335;50.720;7.452;2023-08-30T07:25:09;98488.97;;;14.28;100.00
30554;BME280;17335;50.720;7.452;2023-08-30T07:27:36;98487.16;;;14.35;100.00
30554;BME280;17335;50.720;7.452;2023-08-30T07:30:03;98491.56;;;14.36;100.00
30554;BME280;17335;50.720;7.452;2023-08-30T07:32:30;98493.41;;;14.35;100.00
30554;BME280;17335;50.720;7.452;2023-08-30T07:34:58;98490.78;;;14.42;100.00
30554;BME280;17335;50.720;7.452;2023-08-30T07:37:25;98490.28;;;14.53;100.00
30554;BME280;17335;50.720;7.452;2023-08-30T07:39:51;98492.44;;;14.58;100.00
30554;BME280;17335;50.720;7.452;2023-08-30T07:42:19;98491.47;;;14.66;100.00
30554;BME280;17335;50.720;7.452;2023-08-30T07:44:46;98499.84;;;14.71;100.00
30554;BME280;17335;50.720;7.452;2023-08-30T07:47:13;98496.59;;;14.75;100.00
30554;BME280;17335;50.720;7.452;2023-08-30T07:49:40;98499.00;;;14.92;100.00
30554;BME280;17335;50.720;7.452;2023-08-30T07:52:06;98499.00;;;14.92;100.00
30554;BME280;17335;50.720;7.452;2023-08-30T07:54:37;98497.25;;;15.06;100.00
30554;BME280;17335;50.720;7.452;2023-08-30T07:57:05;98495.06;;;15.16;100.00
30554;BME280;17335;50.720;7.452;2023-08-30T07:59:36;98495.97;;;15.23;100.00
30554;BME280;17335;50.720;7.452;2023-08-30T08:02:04;98486.47;;;15.34;100.00
30554;BME280;17335;50.720;7.452;2023-08-30T08:04:34;98477.75;;;15.38;100.00
30554;BME280;17335;50.720;7.452;2023-08-30T08:07:02;98472.81;;;15.42;100.00
30554;BME280;17335;50.720;7.452;2023-08-30T08:09:29;98481.84;;;15.56;100.00
30554;BME280;17335;50.720;7.452;2023-08-30T08:11:56;98481.66;;;15.57;100.00
30554;BME280;17335;50.720;7.452;2023-08-30T08:14:23;98474.03;;;15.74;100.00
30554;BME280;17335;50.720;7.452;2023-08-30T08:16:50;98485.16;;;15.86;100.00
30554;BME280;17335;50.720;7.452;2023-08-30T08:19:17;98485.63;;;15.97;100.00
30554;BME280;17335;50.720;7.452;2023-08-30T08:21:43;98483.59;;;16.05;100.00
30554;BME280;17335;50.720;7.452;2023-08-30T08:24:10;98473.84;;;16.11;100.00
30554;BME280;17335;50.720;7.452;2023-08-30T08:26:36;98477.44;;;16.25;100.00
30554;BME280;17335;50.720;7.452;2023-08-30T08:29:03;98472.69;;;16.34;100.00
30554;BME280;17335;50.720;7.452;2023-08-30T08:31:30;98477.09;;;16.48;100.00
30554;BME280;17335;50.720;7.452;2023-08-30T08:34:08;98469.00;;;16.61;100.00
30554;BME280;17335;50.720;7.452;2023-08-30T08:36:37;98470.66;;;16.69;100.00
30554;BME280;17335;50.720;7.452;2023-08-30T08:39:05;98466.09;;;16.69;100.00
30554;BME280;17335;50.720;7.452;2023-08-30T08:41:42;98458.00;;;16.76;100.00
30554;BME280;17335;50.720;7.452;2023-08-30T08:44:10;98453.59;;;16.75;100.00
30554;BME280;17335;50.720;7.452;2023-08-30T08:46:38;98449.63;;;16.78;100.00
30554;BME280;17335;50.720;7.452;2023-08-30T08:49:11;98462.81;;;16.94;100.00
30554;BME280;17335;50.720;7.452;2023-08-30T08:51:38;98435.72;;;17.08;100.00
30554;BME280;17335;50.720;7.452;2023-08-30T08:54:05;98422.78;;;17.16;100.00
30554;BME280;17335;50.720;7.452;2023-08-30T08:56:33;98427.13;;;17.24;100.00
30554;BME280;17335;50.720;7.452;2023-08-30T08:59:00;98439.47;;;17.33;100.00
30554;BME280;17335;50.720;7.452;2023-08-30T09:01:27;98426.28;;;17.43;100.00
30554;BME280;17335;50.720;7.452;2023-08-30T09:04:09;98437.09;;;17.57;100.00
30554;BME280;17335;50.720;7.452;2023-08-30T09:06:37;98427.91;;;17.65;100.00
30554;BME280;17335;50.720;7.452;2023-08-30T09:09:06;98430.59;;;17.78;100.00
30554;BME280;17335;50.720;7.452;2023-08-30T09:11:32;98426.19;;;17.90;100.00
30554;BME280;17335;50.720;7.452;2023-08-30T09:14:02;98426.81;;;17.92;100.00
30554;BME280;17335;50.720;7.452;2023-08-30T09:16:28;98418.22;;;17.95;100.00
30554;BME280;17335;50.720;7.452;2023-08-30T09:19:02;98418.22;;;18.02;100.00
30554;BME280;17335;50.720;7.452;2023-08-30T09:21:36;98426.53;;;18.07;100.00
30554;BME280;17335;50.720;7.452;2023-08-30T09:24:05;98419.78;;;18.16;100.00
30554;BME280;17335;50.720;7.452;2023-08-30T09:26:33;98416.69;;;18.13;100.00
30554;BME280;17335;50.720;7.452;2023-08-30T09:29:05;98412.47;;;18.17;100.00
30554;BME280;17335;50.720;7.452;2023-08-30T09:31:36;98411.19;;;18.26;100.00
30554;BME280;17335;50.720;7.452;2023-08-30T09:34:04;98418.44;;;18.32;100.00
30554;BME280;17335;50.720;7.452;2023-08-30T09:36:38;98414.66;;;18.40;100.00
30554;BME280;17335;50.720;7.452;2023-08-30T09:39:09;98406.72;;;18.39;100.00
30554;BME280;17335;50.720;7.452;2023-08-30T09:41:39;98409.53;;;18.57;100.00
30554;BME280;17335;50.720;7.452;2023-08-30T09:44:09;98396.09;;;18.69;100.00
30554;BME280;17335;50.720;7.452;2023-08-30T09:46:49;98396.03;;;18.76;100.00
30554;BME280;17335;50.720;7.452;2023-08-30T09:49:23;98388.25;;;18.79;100.00
30554;BME280;17335;50.720;7.452;2023-08-30T09:51:50;98387.75;;;18.64;100.00
30554;BME280;17335;50.720;7.452;2023-08-30T09:54:20;98383.13;;;18.64;100.00
30554;BME280;17335;50.720;7.452;2023-08-30T09:56:50;98381.03;;;18.66;100.00
30554;BME280;17335;50.720;7.452;2023-08-30T09:59:22;98376.09;;;18.82;100.00
30554;BME280;17335;50.720;7.452;2023-08-30T10:01:49;98372.53;;;18.88;100.00
30554;BME280;17335;50.720;7.452;2023-08-30T10:04:19;98369.13;;;18.92;100.00
30554;BME280;17335;50.720;7.452;2023-08-30T10:06:47;98374.28;;;19.01;100.00
30554;BME280;17335;50.720;7.452;2023-08-30T10:09:14;98356.72;;;19.03;100.00
30554;BME280;17335;50.720;7.452;2023-08-30T10:11:45;98359.22;;;19.05;100.00
30554;BME280;17335;50.720;7.452;2023-08-30T10:14:13;98353.44;;;19.13;100.00
30554;BME280;17335;50.720;7.452;2023-08-30T10:19:10;98345.19;;;19.01;100.00
30554;BME280;17335;50.720;7.452;2023-08-30T10:21:38;98340.59;;;19.02;100.00
30554;BME280;17335;50.720;7.452;2023-08-30T10:24:07;98338.75;;;19.21;100.00
30554;BME280;17335;50.720;7.452;2023-08-30T10:26:52;98326.06;;;19.52;100.00
30554;BME280;17335;50.720;7.452;2023-08-30T10:29:20;98322.72;;;19.49;100.00
30554;BME280;17335;50.720;7.452;2023-08-30T10:31:47;98326.41;;;19.74;100.00
30554;BME280;17335;50.720;7.452;2023-08-30T10:34:17;98310.00;;;19.80;100.00
30554;BME280;17335;50.720;7.452;2023-08-30T10:36:43;98307.28;;;19.62;100.00
30554;BME280;17335;50.720;7.452;2023-08-30T10:39:12;98308.94;;;19.63;100.00
30554;BME280;17335;50.720;7.452;2023-08-30T10:41:56;98312.13;;;19.78;100.00
30554;BME280;17335;50.720;7.452;2023-08-30T10:44:23;98313.94;;;19.66;100.00
30554;BME280;17335;50.720;7.452;2023-08-30T10:46:54;98316.22;;;19.51;100.00
30554;BME280;17335;50.720;7.452;2023-08-30T10:49:22;98304.13;;;19.46;100.00
30554;BME280;17335;50.720;7.452;2023-08-30T10:51:57;98316.50;;;19.42;100.00
30554;BME280;17335;50.720;7.452;2023-08-30T10:54:37;98314.03;;;19.22;100.00
30554;BME280;17335;50.720;7.452;2023-08-30T10:57:13;98310.63;;;19.08;100.00
30554;BME280;17335;50.720;7.452;2023-08-30T11:00:03;98320.97;;;19.00;100.00
30554;BME280;17335;50.720;7.452;2023-08-30T11:02:32;98317.56;;;18.79;100.00
30554;BME280;17335;50.720;7.452;2023-08-30T11:04:59;98318.28;;;18.68;100.00
30554;BME280;17335;50.720;7.452;2023-08-30T11:07:27;98316.28;;;18.56;100.00
30554;BME280;17335;50.720;7.452;2023-08-30T11:09:53;98323.59;;;18.56;100.00
30554;BME280;17335;50.720;7.452;2023-08-30T11:12:20;98321.31;;;18.53;100.00
30554;BME280;17335;50.720;7.452;2023-08-30T11:14:50;98331.00;;;18.49;100.00
30554;BME280;17335;50.720;7.452;2023-08-30T11:17:18;98343.03;;;18.60;100.00
30554;BME280;17335;50.720;7.452;2023-08-30T11:19:45;98349.47;;;18.65;100.00
30554;BME280;17335;50.720;7.452;2023-08-30T11:22:15;98336.66;;;18.72;100.00
30554;BME280;17335;50.720;7.452;2023-08-30T11:24:43;98345.81;;;18.78;100.00
30554;BME280;17335;50.720;7.452;2023-08-30T11:27:11;98355.31;;;18.69;100.00
30554;BME280;17335;50.720;7.452;2023-08-30T11:29:39;98345.09;;;18.64;100.00
30554;BME280;17335;50.720;7.452;2023-08-30T11:32:07;98335.38;;;18.50;100.00
30554;BME280;17335;50.720;7.452;2023-08-30T11:34:34;98352.50;;;18.50;100.00
30554;BME280;17335;50.720;7.452;2023-08-30T11:37:00;98350.19;;;18.54;100.00
30554;BME280;17335;50.720;7.452;2023-08-30T11:39:30;98345.09;;;18.64;100.00
30554;BME280;17335;50.720;7.452;2023-08-30T11:41:57;98334.38;;;18.69;100.00
30554;BME280;17335;50.720;7.452;2023-08-30T11:44:38;98339.81;;;18.69;100.00
30554;BME280;17335;50.720;7.452;2023-08-30T11:47:05;98334.97;;;18.71;100.00
30554;BME280;17335;50.720;7.452;2023-08-30T11:49:32;98324.88;;;18.79;100.00
30554;BME280;17335;50.720;7.452;2023-08-30T11:52:00;98322.50;;;18.89;100.00
30554;BME280;17335;50.720;7.452;2023-08-30T11:54:27;98321.56;;;19.02;100.00
30554;BME280;17335;50.720;7.452;2023-08-30T11:56:53;98309.63;;;19.03;100.00
30554;BME280;17335;50.720;7.452;2023-08-30T11:59:21;98312.56;;;19.01;100.00
30554;BME280;17335;50.720;7.452;2023-08-30T12:01:52;98305.53;;;18.93;100.00
30554;BME280;17335;50.720;7.452;2023-08-30T12:04:19;98289.72;;;18.84;100.00
30554;BME280;17335;50.720;7.452;2023-08-30T12:06:52;98298.59;;;18.72;100.00
30554;BME280;17335;50.720;7.452;2023-08-30T12:09:22;98276.09;;;18.65;100.00
30554;BME280;17335;50.720;7.452;2023-08-30T12:11:49;98290.28;;;18.67;100.00
30554;BME280;17335;50.720;7.452;2023-08-30T12:14:15;98293.22;;;18.66;100.00
30554;BME280;17335;50.720;7.452;2023-08-30T12:16:43;98287.47;;;18.55;100.00
30554;BME280;17335;50.720;7.452;2023-08-30T12:19:17;98280.41;;;18.48;100.00
30554;BME280;17335;50.720;7.452;2023-08-30T12:22:03;98282.56;;;18.39;100.00
30554;BME280;17335;50.720;7.452;2023-08-30T12:27:09;98296.94;;;18.21;100.00
30554;BME280;17335;50.720;7.452;2023-08-30T12:29:35;98298.69;;;18.09;100.00
30554;BME280;17335;50.720;7.452;2023-08-30T12:32:02;98300.88;;;17.93;100.00
30554;BME280;17335;50.720;7.452;2023-08-30T12:34:29;98312.81;;;17.72;100.00
30554;BME280;17335;50.720;7.452;2023-08-30T12:36:55;98313.97;;;17.51;100.00
30554;BME280;17335;50.720;7.452;2023-08-30T12:39:22;98325.50;;;17.40;100.00
30554;BME280;17335;50.720;7.452;2023-08-30T12:41:49;98320.53;;;17.30;100.00
30554;BME280;17335;50.720;7.452;2023-08-30T12:44:15;98333.84;;;17.38;100.00
30554;BME280;17335;50.720;7.452;2023-08-30T12:46:42;98345.78;;;17.17;100.00
30554;BME280;17335;50.720;7.452;2023-08-30T12:49:08;98343.34;;;16.96;100.00
30554;BME280;17335;50.720;7.452;2023-08-30T12:51:35;98353.75;;;16.79;100.00
30554;BME280;17335;50.720;7.452;2023-08-30T12:54:01;98373.75;;;16.51;100.00
30554;BME280;17335;50.720;7.452;2023-08-30T12:56:28;98371.22;;;16.43;100.00
30554;BME280;17335;50.720;7.452;2023-08-30T12:58:54;98381.81;;;16.18;100.00
30554;BME280;17335;50.720;7.452;2023-08-30T13:01:21;98378.47;;;16.16;100.00